Sand Creek, Michigan
Current Conditions -  °F | °C
As of 6:53 PM on Sunday 23 Nov 2014 (Local Time) from KADG Reporting Station
Light Rain Light Rain  
Wind Chill:   Ceiling: 5500
Heat Index:   Visibility: 9mi
Dew Point:   Wind: 8mph
Humidity: 90%   Direction: 100°E
Pressure: 29.54"   Gusts: NA
Location:  41.83°N, 84.1°W
Report Text: KADG 232353Z AUTO 10007KT 9SM -RA OVC055 09/08 A2954 RMK AO2 SLP007 P0000 60007 T00940078 10133 20094 58038
Loading
Personal Weather Stations






























Interactive Weather Map New forecast layout! Learn more

10-Day Weather Forecast

Advertisements
Track Severe Weather on mobile